sensor_id;sensor_type;location;lat;lon;timestamp;P1;durP1;ratioP1;P2;durP2;ratioP2
45466;SDS011;31212;49.734;8.490;2022-08-19T00:01:54;10.88;;;4.90;;
45466;SDS011;31212;49.734;8.490;2022-08-19T00:04:23;8.15;;;4.68;;
45466;SDS011;31212;49.734;8.490;2022-08-19T00:06:50;10.75;;;5.47;;
45466;SDS011;31212;49.734;8.490;2022-08-19T00:09:18;10.23;;;4.45;;
45466;SDS011;31212;49.734;8.490;2022-08-19T00:11:46;10.20;;;4.68;;
45466;SDS011;31212;49.734;8.490;2022-08-19T00:14:13;10.93;;;4.93;;
45466;SDS011;31212;49.734;8.490;2022-08-19T00:16:43;11.27;;;5.20;;
45466;SDS011;31212;49.734;8.490;2022-08-19T00:19:12;9.43;;;5.43;;
45466;SDS011;31212;49.734;8.490;2022-08-19T00:21:39;8.95;;;4.88;;
45466;SDS011;31212;49.734;8.490;2022-08-19T00:24:06;12.77;;;5.43;;
45466;SDS011;31212;49.734;8.490;2022-08-19T00:26:34;14.05;;;5.60;;
45466;SDS011;31212;49.734;8.490;2022-08-19T00:29:01;8.30;;;5.10;;
45466;SDS011;31212;49.734;8.490;2022-08-19T00:31:28;12.15;;;5.35;;
45466;SDS011;31212;49.734;8.490;2022-08-19T00:33:56;10.07;;;5.75;;
45466;SDS011;31212;49.734;8.490;2022-08-19T00:36:24;13.23;;;6.72;;
45466;SDS011;31212;49.734;8.490;2022-08-19T00:38:51;12.68;;;6.57;;
45466;SDS011;31212;49.734;8.490;2022-08-19T00:41:19;15.60;;;6.25;;
45466;SDS011;31212;49.734;8.490;2022-08-19T00:43:56;10.35;;;5.68;;
45466;SDS011;31212;49.734;8.490;2022-08-19T00:46:25;11.07;;;5.80;;
45466;SDS011;31212;49.734;8.490;2022-08-19T00:48:51;11.57;;;5.93;;
45466;SDS011;31212;49.734;8.490;2022-08-19T00:51:18;10.18;;;5.68;;
45466;SDS011;31212;49.734;8.490;2022-08-19T00:53:46;9.43;;;5.13;;
45466;SDS011;31212;49.734;8.490;2022-08-19T00:56:12;12.07;;;6.47;;
45466;SDS011;31212;49.734;8.490;2022-08-19T00:58:40;10.93;;;5.88;;
45466;SDS011;31212;49.734;8.490;2022-08-19T01:01:07;11.70;;;5.80;;
45466;SDS011;31212;49.734;8.490;2022-08-19T01:03:33;14.82;;;6.35;;
45466;SDS011;31212;49.734;8.490;2022-08-19T01:06:00;12.63;;;6.38;;
45466;SDS011;31212;49.734;8.490;2022-08-19T01:08:27;15.77;;;6.32;;
45466;SDS011;31212;49.734;8.490;2022-08-19T01:10:56;14.55;;;7.13;;
45466;SDS011;31212;49.734;8.490;2022-08-19T01:13:26;13.15;;;6.93;;
45466;SDS011;31212;49.734;8.490;2022-08-19T01:15:56;13.05;;;5.88;;
45466;SDS011;31212;49.734;8.490;2022-08-19T01:18:25;11.32;;;6.22;;
45466;SDS011;31212;49.734;8.490;2022-08-19T01:20:53;11.23;;;6.55;;
45466;SDS011;31212;49.734;8.490;2022-08-19T01:23:24;11.05;;;5.68;;
45466;SDS011;31212;49.734;8.490;2022-08-19T01:26:08;13.82;;;6.20;;
45466;SDS011;31212;49.734;8.490;2022-08-19T01:28:36;13.15;;;6.15;;
45466;SDS011;31212;49.734;8.490;2022-08-19T01:31:03;11.63;;;6.45;;
45466;SDS011;31212;49.734;8.490;2022-08-19T01:33:30;11.50;;;6.15;;
45466;SDS011;31212;49.734;8.490;2022-08-19T01:36:02;7.82;;;5.07;;
45466;SDS011;31212;49.734;8.490;2022-08-19T01:38:35;11.60;;;6.25;;
45466;SDS011;31212;49.734;8.490;2022-08-19T01:41:02;11.17;;;6.37;;
45466;SDS011;31212;49.734;8.490;2022-08-19T01:43:29;9.75;;;5.65;;
45466;SDS011;31212;49.734;8.490;2022-08-19T01:45:55;12.02;;;6.20;;
45466;SDS011;31212;49.734;8.490;2022-08-19T01:48:22;8.60;;;5.70;;
45466;SDS011;31212;49.734;8.490;2022-08-19T01:50:48;11.88;;;5.70;;
45466;SDS011;31212;49.734;8.490;2022-08-19T01:53:16;12.10;;;6.93;;
45466;SDS011;31212;49.734;8.490;2022-08-19T01:55:44;12.90;;;6.05;;
45466;SDS011;31212;49.734;8.490;2022-08-19T01:58:12;12.88;;;6.80;;
45466;SDS011;31212;49.734;8.490;2022-08-19T02:00:41;16.05;;;6.90;;
45466;SDS011;31212;49.734;8.490;2022-08-19T02:03:08;11.25;;;5.90;;
45466;SDS011;31212;49.734;8.490;2022-08-19T02:05:36;9.30;;;5.18;;
45466;SDS011;31212;49.734;8.490;2022-08-19T02:08:03;8.43;;;5.78;;
45466;SDS011;31212;49.734;8.490;2022-08-19T02:10:30;9.35;;;5.68;;
45466;SDS011;31212;49.734;8.490;2022-08-19T02:12:58;9.35;;;5.32;;
45466;SDS011;31212;49.734;8.490;2022-08-19T02:15:25;11.60;;;6.70;;
45466;SDS011;31212;49.734;8.490;2022-08-19T02:17:51;11.15;;;5.95;;
45466;SDS011;31212;49.734;8.490;2022-08-19T02:20:18;14.50;;;6.55;;
45466;SDS011;31212;49.734;8.490;2022-08-19T02:22:44;9.45;;;5.80;;
45466;SDS011;31212;49.734;8.490;2022-08-19T02:25:12;9.88;;;5.25;;
45466;SDS011;31212;49.734;8.490;2022-08-19T02:27:39;13.38;;;6.88;;
45466;SDS011;31212;49.734;8.490;2022-08-19T02:30:10;10.73;;;5.35;;
45466;SDS011;31212;49.734;8.490;2022-08-19T02:32:40;10.27;;;5.43;;
45466;SDS011;31212;49.734;8.490;2022-08-19T02:35:08;12.48;;;5.95;;
45466;SDS011;31212;49.734;8.490;2022-08-19T02:37:35;9.20;;;5.65;;
45466;SDS011;31212;49.734;8.490;2022-08-19T02:40:19;12.43;;;6.53;;
45466;SDS011;31212;49.734;8.490;2022-08-19T02:42:46;13.65;;;6.20;;
45466;SDS011;31212;49.734;8.490;2022-08-19T02:45:14;13.45;;;6.38;;
45466;SDS011;31212;49.734;8.490;2022-08-19T02:47:40;11.20;;;5.70;;
45466;SDS011;31212;49.734;8.490;2022-08-19T02:50:08;9.68;;;5.63;;
45466;SDS011;31212;49.734;8.490;2022-08-19T05:01:11;12.15;;;5.68;;
45466;SDS011;31212;49.734;8.490;2022-08-19T05:03:38;11.32;;;5.68;;
45466;SDS011;31212;49.734;8.490;2022-08-19T05:06:05;8.43;;;5.35;;
45466;SDS011;31212;49.734;8.490;2022-08-19T05:08:34;13.43;;;5.30;;
45466;SDS011;31212;49.734;8.490;2022-08-19T05:11:07;9.77;;;5.18;;
45466;SDS011;31212;49.734;8.490;2022-08-19T05:13:38;9.70;;;5.13;;
45466;SDS011;31212;49.734;8.490;2022-08-19T05:16:04;9.23;;;4.95;;
45466;SDS011;31212;49.734;8.490;2022-08-19T05:18:33;11.35;;;5.90;;
45466;SDS011;31212;49.734;8.490;2022-08-19T05:21:18;8.05;;;4.40;;
45466;SDS011;31212;49.734;8.490;2022-08-19T05:24:03;6.68;;;4.20;;
45466;SDS011;31212;49.734;8.490;2022-08-19T05:26:34;7.63;;;4.82;;
45466;SDS011;31212;49.734;8.490;2022-08-19T05:29:00;7.63;;;4.43;;
45466;SDS011;31212;49.734;8.490;2022-08-19T05:31:27;6.47;;;4.05;;
45466;SDS011;31212;49.734;8.490;2022-08-19T05:33:55;9.23;;;5.20;;
45466;SDS011;31212;49.734;8.490;2022-08-19T05:36:23;7.88;;;4.70;;
45466;SDS011;31212;49.734;8.490;2022-08-19T05:38:49;5.90;;;4.13;;
45466;SDS011;31212;49.734;8.490;2022-08-19T05:41:17;8.48;;;5.10;;
45466;SDS011;31212;49.734;8.490;2022-08-19T05:43:45;6.75;;;4.70;;
45466;SDS011;31212;49.734;8.490;2022-08-19T05:46:15;8.75;;;4.50;;
45466;SDS011;31212;49.734;8.490;2022-08-19T05:48:44;8.52;;;4.93;;
45466;SDS011;31212;49.734;8.490;2022-08-19T05:51:12;7.85;;;4.18;;
45466;SDS011;31212;49.734;8.490;2022-08-19T05:53:38;7.15;;;4.65;;
45466;SDS011;31212;49.734;8.490;2022-08-19T05:56:05;8.00;;;4.47;;
45466;SDS011;31212;49.734;8.490;2022-08-19T05:58:33;9.70;;;5.72;;
45466;SDS011;31212;49.734;8.490;2022-08-19T06:00:59;9.10;;;4.70;;
45466;SDS011;31212;49.734;8.490;2022-08-19T06:03:29;7.07;;;4.28;;
45466;SDS011;31212;49.734;8.490;2022-08-19T06:05:56;7.13;;;4.18;;
45466;SDS011;31212;49.734;8.490;2022-08-19T06:08:25;8.95;;;4.35;;
45466;SDS011;31212;49.734;8.490;2022-08-19T06:10:52;6.85;;;4.57;;
45466;SDS011;31212;49.734;8.490;2022-08-19T06:13:18;7.90;;;4.22;;
45466;SDS011;31212;49.734;8.490;2022-08-19T06:15:45;7.13;;;4.75;;
45466;SDS011;31212;49.734;8.490;2022-08-19T06:18:12;7.95;;;4.03;;
45466;SDS011;31212;49.734;8.490;2022-08-19T06:20:40;7.85;;;5.43;;
45466;SDS011;31212;49.734;8.490;2022-08-19T06:23:07;8.13;;;4.20;;
45466;SDS011;31212;49.734;8.490;2022-08-19T06:25:35;8.77;;;4.25;;
45466;SDS011;31212;49.734;8.490;2022-08-19T06:28:02;6.65;;;3.65;;
45466;SDS011;31212;49.734;8.490;2022-08-19T06:30:29;5.32;;;3.33;;
45466;SDS011;31212;49.734;8.490;2022-08-19T06:32:55;8.07;;;4.78;;
45466;SDS011;31212;49.734;8.490;2022-08-19T06:35:22;8.35;;;4.43;;
45466;SDS011;31212;49.734;8.490;2022-08-19T06:37:48;6.95;;;4.30;;
45466;SDS011;31212;49.734;8.490;2022-08-19T06:40:15;7.53;;;4.30;;
45466;SDS011;31212;49.734;8.490;2022-08-19T06:42:43;5.80;;;3.40;;
45466;SDS011;31212;49.734;8.490;2022-08-19T06:45:09;6.15;;;3.83;;
45466;SDS011;31212;49.734;8.490;2022-08-19T06:47:36;7.43;;;3.78;;
45466;SDS011;31212;49.734;8.490;2022-08-19T06:50:03;6.60;;;3.95;;
45466;SDS011;31212;49.734;8.490;2022-08-19T06:52:30;6.43;;;3.72;;
45466;SDS011;31212;49.734;8.490;2022-08-19T06:54:57;6.45;;;3.35;;
45466;SDS011;31212;49.734;8.490;2022-08-19T06:57:24;5.70;;;3.70;;
45466;SDS011;31212;49.734;8.490;2022-08-19T06:59:53;5.47;;;3.00;;
45466;SDS011;31212;49.734;8.490;2022-08-19T07:02:21;7.47;;;4.10;;
45466;SDS011;31212;49.734;8.490;2022-08-19T07:04:51;7.05;;;4.20;;
45466;SDS011;31212;49.734;8.490;2022-08-19T07:07:18;8.85;;;3.30;;
45466;SDS011;31212;49.734;8.490;2022-08-19T07:09:47;5.05;;;3.60;;
45466;SDS011;31212;49.734;8.490;2022-08-19T07:12:15;9.15;;;3.63;;
45466;SDS011;31212;49.734;8.490;2022-08-19T07:14:42;5.85;;;3.22;;
45466;SDS011;31212;49.734;8.490;2022-08-19T07:17:12;5.55;;;3.42;;
45466;SDS011;31212;49.734;8.490;2022-08-19T07:19:39;7.38;;;4.22;;
45466;SDS011;31212;49.734;8.490;2022-08-19T07:22:08;6.75;;;3.45;;
45466;SDS011;31212;49.734;8.490;2022-08-19T07:24:36;12.05;;;4.35;;
45466;SDS011;31212;49.734;8.490;2022-08-19T07:27:04;7.53;;;4.45;;
45466;SDS011;31212;49.734;8.490;2022-08-19T07:29:34;6.40;;;3.33;;
45466;SDS011;31212;49.734;8.490;2022-08-19T07:32:03;5.28;;;3.45;;
45466;SDS011;31212;49.734;8.490;2022-08-19T07:34:32;5.43;;;3.22;;
45466;SDS011;31212;49.734;8.490;2022-08-19T07:37:02;5.80;;;3.50;;
45466;SDS011;31212;49.734;8.490;2022-08-19T07:39:30;6.80;;;3.10;;
45466;SDS011;31212;49.734;8.490;2022-08-19T07:41:59;4.60;;;2.63;;
45466;SDS011;31212;49.734;8.490;2022-08-19T07:44:27;5.00;;;3.25;;
45466;SDS011;31212;49.734;8.490;2022-08-19T07:46:55;3.90;;;2.40;;
45466;SDS011;31212;49.734;8.490;2022-08-19T07:49:23;4.32;;;2.65;;
45466;SDS011;31212;49.734;8.490;2022-08-19T07:51:53;4.57;;;3.05;;
45466;SDS011;31212;49.734;8.490;2022-08-19T07:54:22;4.33;;;2.53;;
45466;SDS011;31212;49.734;8.490;2022-08-19T07:56:50;4.30;;;2.67;;
45466;SDS011;31212;49.734;8.490;2022-08-19T07:59:17;7.78;;;3.13;;
45466;SDS011;31212;49.734;8.490;2022-08-19T08:01:45;5.18;;;2.50;;
45466;SDS011;31212;49.734;8.490;2022-08-19T08:04:13;4.50;;;2.67;;
45466;SDS011;31212;49.734;8.490;2022-08-19T08:06:58;4.65;;;2.58;;
45466;SDS011;31212;49.734;8.490;2022-08-19T08:09:43;4.22;;;2.83;;
45466;SDS011;31212;49.734;8.490;2022-08-19T08:12:11;3.55;;;2.83;;
45466;SDS011;31212;49.734;8.490;2022-08-19T08:14:40;7.60;;;3.22;;
45466;SDS011;31212;49.734;8.490;2022-08-19T08:19:41;4.97;;;2.80;;
45466;SDS011;31212;49.734;8.490;2022-08-19T08:22:09;2.83;;;2.58;;
45466;SDS011;31212;49.734;8.490;2022-08-19T08:24:59;4.07;;;2.90;;
45466;SDS011;31212;49.734;8.490;2022-08-19T08:27:27;7.85;;;3.47;;
45466;SDS011;31212;49.734;8.490;2022-08-19T08:29:56;6.40;;;3.20;;
45466;SDS011;31212;49.734;8.490;2022-08-19T08:32:23;4.85;;;3.03;;
45466;SDS011;31212;49.734;8.490;2022-08-19T08:34:49;5.80;;;3.40;;
45466;SDS011;31212;49.734;8.490;2022-08-19T08:37:17;5.60;;;2.95;;
45466;SDS011;31212;49.734;8.490;2022-08-19T08:39:43;4.63;;;2.90;;
45466;SDS011;31212;49.734;8.490;2022-08-19T08:42:11;3.35;;;2.38;;
45466;SDS011;31212;49.734;8.490;2022-08-19T08:44:47;3.50;;;2.20;;
45466;SDS011;31212;49.734;8.490;2022-08-19T08:47:19;6.88;;;3.20;;
45466;SDS011;31212;49.734;8.490;2022-08-19T08:49:50;3.05;;;2.25;;
45466;SDS011;31212;49.734;8.490;2022-08-19T08:52:23;4.53;;;2.67;;
45466;SDS011;31212;49.734;8.490;2022-08-19T08:54:53;5.55;;;2.88;;
45466;SDS011;31212;49.734;8.490;2022-08-19T08:57:24;2.83;;;2.00;;
45466;SDS011;31212;49.734;8.490;2022-08-19T08:59:53;2.50;;;2.20;;
45466;SDS011;31212;49.734;8.490;2022-08-19T09:02:23;3.25;;;2.45;;
45466;SDS011;31212;49.734;8.490;2022-08-19T09:04:49;4.28;;;2.55;;
45466;SDS011;31212;49.734;8.490;2022-08-19T09:07:25;4.95;;;2.45;;
45466;SDS011;31212;49.734;8.490;2022-08-19T09:10:10;6.85;;;3.17;;
45466;SDS011;31212;49.734;8.490;2022-08-19T09:12:47;8.15;;;3.28;;
45466;SDS011;31212;49.734;8.490;2022-08-19T09:15:25;6.25;;;2.97;;
45466;SDS011;31212;49.734;8.490;2022-08-19T09:17:58;3.25;;;2.28;;
45466;SDS011;31212;49.734;8.490;2022-08-19T09:20:26;7.57;;;3.45;;
45466;SDS011;31212;49.734;8.490;2022-08-19T09:22:55;6.25;;;3.47;;
45466;SDS011;31212;49.734;8.490;2022-08-19T09:25:22;7.28;;;3.25;;
45466;SDS011;31212;49.734;8.490;2022-08-19T09:27:49;3.75;;;2.95;;
45466;SDS011;31212;49.734;8.490;2022-08-19T09:30:18;6.85;;;2.90;;
45466;SDS011;31212;49.734;8.490;2022-08-19T09:32:47;4.95;;;2.95;;
45466;SDS011;31212;49.734;8.490;2022-08-19T09:35:14;4.05;;;2.90;;
45466;SDS011;31212;49.734;8.490;2022-08-19T09:37:41;6.75;;;2.95;;
45466;SDS011;31212;49.734;8.490;2022-08-19T09:40:10;5.00;;;2.65;;
45466;SDS011;31212;49.734;8.490;2022-08-19T09:42:38;5.60;;;2.90;;
45466;SDS011;31212;49.734;8.490;2022-08-19T09:45:05;4.95;;;3.60;;
45466;SDS011;31212;49.734;8.490;2022-08-19T09:47:32;5.00;;;3.17;;
45466;SDS011;31212;49.734;8.490;2022-08-19T09:50:01;4.75;;;2.92;;
45466;SDS011;31212;49.734;8.490;2022-08-19T09:52:27;5.00;;;2.88;;
45466;SDS011;31212;49.734;8.490;2022-08-19T09:54:54;2.80;;;2.38;;
45466;SDS011;31212;49.734;8.490;2022-08-19T09:57:21;3.33;;;2.45;;
45466;SDS011;31212;49.734;8.490;2022-08-19T09:59:48;3.75;;;2.47;;
45466;SDS011;31212;49.734;8.490;2022-08-19T10:02:14;4.55;;;2.83;;
45466;SDS011;31212;49.734;8.490;2022-08-19T10:04:41;4.28;;;3.17;;
45466;SDS011;31212;49.734;8.490;2022-08-19T10:07:25;3.20;;;2.75;;
45466;SDS011;31212;49.734;8.490;2022-08-19T10:09:51;3.95;;;2.85;;
45466;SDS011;31212;49.734;8.490;2022-08-19T10:12:18;5.15;;;3.60;;
45466;SDS011;31212;49.734;8.490;2022-08-19T10:14:46;3.65;;;3.25;;
45466;SDS011;31212;49.734;8.490;2022-08-19T10:17:13;4.47;;;3.28;;
45466;SDS011;31212;49.734;8.490;2022-08-19T10:19:39;4.45;;;3.40;;
45466;SDS011;31212;49.734;8.490;2022-08-19T10:22:06;4.57;;;3.30;;
45466;SDS011;31212;49.734;8.490;2022-08-19T10:24:33;3.97;;;2.85;;
45466;SDS011;31212;49.734;8.490;2022-08-19T10:27:00;3.63;;;3.03;;
45466;SDS011;31212;49.734;8.490;2022-08-19T10:29:28;7.13;;;4.25;;
45466;SDS011;31212;49.734;8.490;2022-08-19T10:31:58;6.57;;;4.22;;
45466;SDS011;31212;49.734;8.490;2022-08-19T10:34:25;4.47;;;3.75;;
45466;SDS011;31212;49.734;8.490;2022-08-19T10:36:52;6.05;;;4.28;;
45466;SDS011;31212;49.734;8.490;2022-08-19T10:39:18;5.38;;;3.83;;
45466;SDS011;31212;49.734;8.490;2022-08-19T10:41:45;4.95;;;3.70;;
45466;SDS011;31212;49.734;8.490;2022-08-19T10:44:12;5.93;;;3.70;;
45466;SDS011;31212;49.734;8.490;2022-08-19T10:46:41;3.58;;;3.00;;
45466;SDS011;31212;49.734;8.490;2022-08-19T10:49:13;8.32;;;4.55;;
45466;SDS011;31212;49.734;8.490;2022-08-19T10:51:40;4.03;;;3.05;;
45466;SDS011;31212;49.734;8.490;2022-08-19T10:54:25;4.65;;;2.70;;
45466;SDS011;31212;49.734;8.490;2022-08-19T10:57:13;3.92;;;2.70;;
45466;SDS011;31212;49.734;8.490;2022-08-19T10:59:39;5.78;;;3.60;;
45466;SDS011;31212;49.734;8.490;2022-08-19T11:02:07;4.80;;;2.90;;
45466;SDS011;31212;49.734;8.490;2022-08-19T11:04:37;6.40;;;4.25;;
45466;SDS011;31212;49.734;8.490;2022-08-19T11:07:04;5.80;;;3.85;;
45466;SDS011;31212;49.734;8.490;2022-08-19T11:09:31;4.47;;;3.15;;
45466;SDS011;31212;49.734;8.490;2022-08-19T11:12:04;5.65;;;3.40;;
45466;SDS011;31212;49.734;8.490;2022-08-19T11:14:31;6.68;;;3.42;;
45466;SDS011;31212;49.734;8.490;2022-08-19T11:16:59;6.60;;;4.32;;
45466;SDS011;31212;49.734;8.490;2022-08-19T11:19:25;6.90;;;3.90;;
45466;SDS011;31212;49.734;8.490;2022-08-19T11:21:53;5.30;;;4.03;;
45466;SDS011;31212;49.734;8.490;2022-08-19T11:24:21;4.75;;;3.33;;
45466;SDS011;31212;49.734;8.490;2022-08-19T11:26:50;6.20;;;3.72;;
45466;SDS011;31212;49.734;8.490;2022-08-19T11:29:21;4.53;;;3.22;;
45466;SDS011;31212;49.734;8.490;2022-08-19T11:31:50;3.33;;;2.17;;
45466;SDS011;31212;49.734;8.490;2022-08-19T11:34:19;5.72;;;3.67;;
45466;SDS011;31212;49.734;8.490;2022-08-19T11:36:47;4.00;;;3.40;;
45466;SDS011;31212;49.734;8.490;2022-08-19T11:39:17;4.65;;;3.30;;
45466;SDS011;31212;49.734;8.490;2022-08-19T11:41:45;3.97;;;3.03;;
45466;SDS011;31212;49.734;8.490;2022-08-19T11:44:12;5.18;;;3.30;;
45466;SDS011;31212;49.734;8.490;2022-08-19T11:46:40;4.03;;;3.22;;
45466;SDS011;31212;49.734;8.490;2022-08-19T11:49:10;5.50;;;3.25;;
45466;SDS011;31212;49.734;8.490;2022-08-19T11:51:37;4.57;;;3.55;;
45466;SDS011;31212;49.734;8.490;2022-08-19T11:54:04;6.35;;;3.53;;
45466;SDS011;31212;49.734;8.490;2022-08-19T11:56:33;6.13;;;3.53;;
45466;SDS011;31212;49.734;8.490;2022-08-19T11:58:59;4.95;;;2.90;;
45466;SDS011;31212;49.734;8.490;2022-08-19T12:01:27;3.78;;;2.80;;
45466;SDS011;31212;49.734;8.490;2022-08-19T12:03:54;4.40;;;2.92;;
45466;SDS011;31212;49.734;8.490;2022-08-19T12:06:23;4.47;;;3.03;;
45466;SDS011;31212;49.734;8.490;2022-08-19T12:08:53;5.35;;;3.13;;
45466;SDS011;31212;49.734;8.490;2022-08-19T12:11:20;3.47;;;3.13;;
45466;SDS011;31212;49.734;8.490;2022-08-19T12:13:49;4.00;;;2.95;;
45466;SDS011;31212;49.734;8.490;2022-08-19T12:16:16;4.18;;;2.97;;
45466;SDS011;31212;49.734;8.490;2022-08-19T12:18:44;3.45;;;3.15;;
45466;SDS011;31212;49.734;8.490;2022-08-19T12:21:11;2.83;;;2.53;;
45466;SDS011;31212;49.734;8.490;2022-08-19T12:23:39;3.78;;;2.80;;
45466;SDS011;31212;49.734;8.490;2022-08-19T12:26:05;3.55;;;2.92;;
45466;SDS011;31212;49.734;8.490;2022-08-19T12:28:32;4.32;;;2.65;;
45466;SDS011;31212;49.734;8.490;2022-08-19T12:31:00;3.90;;;3.22;;
45466;SDS011;31212;49.734;8.490;2022-08-19T12:33:27;3.50;;;2.65;;
45466;SDS011;31212;49.734;8.490;2022-08-19T12:35:54;5.78;;;2.50;;
45466;SDS011;31212;49.734;8.490;2022-08-19T12:38:21;3.53;;;2.67;;
45466;SDS011;31212;49.734;8.490;2022-08-19T12:40:49;3.50;;;2.25;;
45466;SDS011;31212;49.734;8.490;2022-08-19T12:43:17;6.10;;;3.53;;
45466;SDS011;31212;49.734;8.490;2022-08-19T12:45:44;3.15;;;2.40;;
45466;SDS011;31212;49.734;8.490;2022-08-19T12:48:13;3.20;;;2.47;;
45466;SDS011;31212;49.734;8.490;2022-08-19T12:50:40;2.78;;;2.45;;
45466;SDS011;31212;49.734;8.490;2022-08-19T12:53:07;3.83;;;2.42;;
45466;SDS011;31212;49.734;8.490;2022-08-19T12:55:34;3.75;;;2.55;;
45466;SDS011;31212;49.734;8.490;2022-08-19T12:58:00;3.72;;;2.88;;
45466;SDS011;31212;49.734;8.490;2022-08-19T13:00:27;3.60;;;2.53;;
45466;SDS011;31212;49.734;8.490;2022-08-19T13:02:55;4.57;;;2.45;;
45466;SDS011;31212;49.734;8.490;2022-08-19T13:05:25;2.92;;;2.40;;
45466;SDS011;31212;49.734;8.490;2022-08-19T13:07:52;4.15;;;2.67;;
45466;SDS011;31212;49.734;8.490;2022-08-19T13:10:21;2.92;;;2.55;;
45466;SDS011;31212;49.734;8.490;2022-08-19T13:12:50;2.85;;;2.40;;
45466;SDS011;31212;49.734;8.490;2022-08-19T13:15:18;3.00;;;2.50;;
45466;SDS011;31212;49.734;8.490;2022-08-19T13:17:46;2.65;;;2.42;;
45466;SDS011;31212;49.734;8.490;2022-08-19T13:20:14;4.05;;;2.38;;
45466;SDS011;31212;49.734;8.490;2022-08-19T13:22:43;2.80;;;2.35;;
45466;SDS011;31212;49.734;8.490;2022-08-19T13:25:09;3.40;;;3.08;;
45466;SDS011;31212;49.734;8.490;2022-08-19T13:27:37;3.58;;;2.65;;
45466;SDS011;31212;49.734;8.490;2022-08-19T13:30:05;3.42;;;2.30;;
45466;SDS011;31212;49.734;8.490;2022-08-19T13:32:50;2.83;;;2.20;;
45466;SDS011;31212;49.734;8.490;2022-08-19T13:35:35;3.55;;;2.67;;
45466;SDS011;31212;49.734;8.490;2022-08-19T13:38:02;4.07;;;2.72;;
45466;SDS011;31212;49.734;8.490;2022-08-19T13:40:30;4.38;;;3.15;;
45466;SDS011;31212;49.734;8.490;2022-08-19T13:42:59;3.63;;;3.00;;
45466;SDS011;31212;49.734;8.490;2022-08-19T13:45:27;3.80;;;2.92;;
45466;SDS011;31212;49.734;8.490;2022-08-19T13:47:55;3.08;;;2.53;;
45466;SDS011;31212;49.734;8.490;2022-08-19T13:50:23;6.18;;;2.88;;
45466;SDS011;31212;49.734;8.490;2022-08-19T13:52:51;3.92;;;2.67;;
45466;SDS011;31212;49.734;8.490;2022-08-19T13:55:20;3.50;;;2.75;;
45466;SDS011;31212;49.734;8.490;2022-08-19T13:57:49;4.53;;;2.70;;
45466;SDS011;31212;49.734;8.490;2022-08-19T14:00:16;4.43;;;2.75;;
45466;SDS011;31212;49.734;8.490;2022-08-19T14:02:45;3.75;;;2.60;;
45466;SDS011;31212;49.734;8.490;2022-08-19T14:05:13;6.82;;;2.75;;
45466;SDS011;31212;49.734;8.490;2022-08-19T14:07:41;4.00;;;2.67;;
45466;SDS011;31212;49.734;8.490;2022-08-19T14:10:09;4.68;;;3.05;;
45466;SDS011;31212;49.734;8.490;2022-08-19T14:12:39;4.95;;;3.33;;
45466;SDS011;31212;49.734;8.490;2022-08-19T14:15:06;5.53;;;2.80;;
45466;SDS011;31212;49.734;8.490;2022-08-19T14:20:39;2.50;;;2.00;;
45466;SDS011;31212;49.734;8.490;2022-08-19T14:23:07;3.22;;;2.55;;
45466;SDS011;31212;49.734;8.490;2022-08-19T14:25:33;3.22;;;2.50;;
45466;SDS011;31212;49.734;8.490;2022-08-19T14:28:01;4.22;;;2.80;;
45466;SDS011;31212;49.734;8.490;2022-08-19T14:30:29;3.95;;;2.65;;
45466;SDS011;31212;49.734;8.490;2022-08-19T14:32:58;3.90;;;2.72;;
45466;SDS011;31212;49.734;8.490;2022-08-19T14:35:26;2.95;;;2.10;;
45466;SDS011;31212;49.734;8.490;2022-08-19T14:37:53;3.22;;;2.42;;
45466;SDS011;31212;49.734;8.490;2022-08-19T14:40:22;3.42;;;2.47;;
45466;SDS011;31212;49.734;8.490;2022-08-19T14:42:51;5.80;;;2.70;;
45466;SDS011;31212;49.734;8.490;2022-08-19T14:45:22;3.35;;;2.30;;
45466;SDS011;31212;49.734;8.490;2022-08-19T14:47:48;3.75;;;2.40;;
45466;SDS011;31212;49.734;8.490;2022-08-19T14:50:15;3.42;;;2.00;;
45466;SDS011;31212;49.734;8.490;2022-08-19T14:52:41;2.83;;;2.25;;
45466;SDS011;31212;49.734;8.490;2022-08-19T14:55:08;2.72;;;2.17;;
45466;SDS011;31212;49.734;8.490;2022-08-19T14:57:35;2.70;;;1.98;;
45466;SDS011;31212;49.734;8.490;2022-08-19T15:00:03;2.15;;;1.95;;
45466;SDS011;31212;49.734;8.490;2022-08-19T15:02:31;3.08;;;2.25;;
45466;SDS011;31212;49.734;8.490;2022-08-19T15:04:58;2.45;;;1.92;;
45466;SDS011;31212;49.734;8.490;2022-08-19T15:07:25;2.90;;;2.13;;
45466;SDS011;31212;49.734;8.490;2022-08-19T15:09:51;1.83;;;1.38;;
45466;SDS011;31212;49.734;8.490;2022-08-19T15:12:18;2.35;;;1.75;;
45466;SDS011;31212;49.734;8.490;2022-08-19T15:14:44;2.22;;;1.70;;
45466;SDS011;31212;49.734;8.490;2022-08-19T15:17:15;2.05;;;1.70;;
45466;SDS011;31212;49.734;8.490;2022-08-19T15:19:43;3.20;;;2.17;;
45466;SDS011;31212;49.734;8.490;2022-08-19T15:22:10;3.60;;;1.88;;
45466;SDS011;31212;49.734;8.490;2022-08-19T15:24:36;2.92;;;2.05;;
45466;SDS011;31212;49.734;8.490;2022-08-19T15:27:03;2.00;;;1.65;;
45466;SDS011;31212;49.734;8.490;2022-08-19T15:29:30;3.22;;;2.10;;
45466;SDS011;31212;49.734;8.490;2022-08-19T15:31:57;2.40;;;1.63;;
45466;SDS011;31212;49.734;8.490;2022-08-19T15:34:24;2.20;;;1.90;;
45466;SDS011;31212;49.734;8.490;2022-08-19T15:36:53;2.25;;;1.88;;
45466;SDS011;31212;49.734;8.490;2022-08-19T15:39:23;3.25;;;2.28;;
45466;SDS011;31212;49.734;8.490;2022-08-19T15:41:49;3.03;;;2.00;;
45466;SDS011;31212;49.734;8.490;2022-08-19T15:44:16;3.38;;;1.83;;
45466;SDS011;31212;49.734;8.490;2022-08-19T15:46:46;3.10;;;2.25;;
45466;SDS011;31212;49.734;8.490;2022-08-19T15:49:14;4.93;;;2.42;;
45466;SDS011;31212;49.734;8.490;2022-08-19T15:51:43;3.42;;;2.22;;
45466;SDS011;31212;49.734;8.490;2022-08-19T15:54:13;2.83;;;1.98;;
45466;SDS011;31212;49.734;8.490;2022-08-19T15:56:42;3.97;;;2.47;;
45466;SDS011;31212;49.734;8.490;2022-08-19T15:59:25;1.67;;;1.55;;
45466;SDS011;31212;49.734;8.490;2022-08-19T16:02:10;2.55;;;2.15;;
45466;SDS011;31212;49.734;8.490;2022-08-19T16:04:54;2.47;;;2.00;;
45466;SDS011;31212;49.734;8.490;2022-08-19T16:07:38;2.28;;;1.90;;
45466;SDS011;31212;49.734;8.490;2022-08-19T16:10:06;2.83;;;2.28;;
45466;SDS011;31212;49.734;8.490;2022-08-19T16:12:34;4.97;;;2.92;;
45466;SDS011;31212;49.734;8.490;2022-08-19T16:15:00;1.90;;;1.73;;
45466;SDS011;31212;49.734;8.490;2022-08-19T16:17:27;3.20;;;2.38;;
45466;SDS011;31212;49.734;8.490;2022-08-19T16:19:53;3.00;;;2.28;;
45466;SDS011;31212;49.734;8.490;2022-08-19T16:22:20;3.75;;;2.30;;
45466;SDS011;31212;49.734;8.490;2022-08-19T16:24:46;2.67;;;2.45;;
45466;SDS011;31212;49.734;8.490;2022-08-19T16:27:14;2.75;;;1.92;;
45466;SDS011;31212;49.734;8.490;2022-08-19T16:29:40;2.55;;;2.10;;
45466;SDS011;31212;49.734;8.490;2022-08-19T16:32:08;5.45;;;3.03;;
45466;SDS011;31212;49.734;8.490;2022-08-19T16:34:36;2.40;;;2.00;;
45466;SDS011;31212;49.734;8.490;2022-08-19T16:37:04;3.42;;;2.55;;
45466;SDS011;31212;49.734;8.490;2022-08-19T16:39:30;3.72;;;2.25;;
45466;SDS011;31212;49.734;8.490;2022-08-19T16:41:57;3.63;;;2.55;;
45466;SDS011;31212;49.734;8.490;2022-08-19T16:44:25;2.60;;;2.38;;
45466;SDS011;31212;49.734;8.490;2022-08-19T16:46:52;3.47;;;2.65;;
45466;SDS011;31212;49.734;8.490;2022-08-19T16:49:18;3.95;;;2.58;;
45466;SDS011;31212;49.734;8.490;2022-08-19T16:51:45;3.45;;;2.30;;
45466;SDS011;31212;49.734;8.490;2022-08-19T16:54:11;5.10;;;2.67;;
45466;SDS011;31212;49.734;8.490;2022-08-19T16:56:38;3.95;;;2.55;;
45466;SDS011;31212;49.734;8.490;2022-08-19T16:59:04;3.38;;;2.20;;
45466;SDS011;31212;49.734;8.490;2022-08-19T17:01:32;3.83;;;2.55;;
45466;SDS011;31212;49.734;8.490;2022-08-19T17:03:59;3.50;;;2.58;;
45466;SDS011;31212;49.734;8.490;2022-08-19T17:06:26;3.15;;;2.28;;
45466;SDS011;31212;49.734;8.490;2022-08-19T17:08:55;4.45;;;2.78;;